Sunday, May 27, 2018, 11:47 AM EDT

KJYO, Leesburg / Godfrey

Location: Leesburg, VA, United States Lat: 39.083
Local Time: 11:47 AM EDT (15:47 GMT) Lon: -77.567
Time Zone: US/Eastern Elev: 390 ft

Show me the last for .
Show Decoded

2018-05-27 11:35 METAR KJYO 271535Z AUTO 00000KT 10SM CLR 28/21 A2995 RMK AO2 =
2018-05-27 11:15 METAR KJYO 271515Z AUTO 02004KT 10SM CLR 28/21 A2995 RMK AO2 =
2018-05-27 10:55 METAR KJYO 271455Z AUTO 03004KT 10SM CLR 28/21 A2995 RMK AO2 =
2018-05-27 10:35 METAR KJYO 271435Z AUTO 30003KT 10SM CLR 27/21 A2995 RMK AO2 =
2018-05-27 10:15 METAR KJYO 271415Z AUTO 31004KT 10SM CLR 27/21 A2995 RMK AO2 =
2018-05-27 09:55 METAR KJYO 271355Z AUTO 30004KT 10SM CLR 27/22 A2995 RMK AO2 =
2018-05-27 09:35 METAR KJYO 271335Z AUTO 35003KT 10SM CLR 26/21 A2995 RMK AO2 =
2018-05-27 09:15 METAR KJYO 271315Z AUTO 35003KT 10SM CLR 25/21 A2995 RMK AO2 =
2018-05-27 08:55 METAR KJYO 271255Z AUTO 00000KT 10SM CLR 25/21 A2994 RMK AO2 =
2018-05-27 08:35 METAR KJYO 271235Z AUTO 27004KT 10SM SCT120 23/22 A2993 RMK AO2 =
2018-05-27 08:15 METAR KJYO 271215Z AUTO 00000KT 10SM CLR 22/21 A2993 RMK AO2 =
2018-05-27 07:55 METAR KJYO 271155Z AUTO 00000KT 10SM CLR 22/21 A2993 RMK AO2 =
2018-05-27 07:35 METAR KJYO 271135Z AUTO 00000KT 10SM CLR 22/21 A2993 RMK AO2 =
2018-05-27 07:15 METAR KJYO 271115Z AUTO 00000KT 10SM SCT005 21/21 A2993 RMK AO2 =
2018-05-27 06:55 METAR KJYO 271055Z AUTO 00000KT 7SM SCT050 21/21 A2992 RMK AO2 =
2018-05-27 06:35 METAR KJYO 271035Z AUTO 26004KT 10SM SCT006 SCT042 BKN048 21/21 A2992 RMK AO2 =
2018-05-27 06:15 METAR KJYO 271015Z AUTO 00000KT 10SM BKN006 BKN042 OVC048 21/21 A2992 RMK AO2 =
2018-05-27 05:55 METAR KJYO 270955Z AUTO 00000KT 10SM OVC006 21/21 A2991 RMK AO2 =
2018-05-27 05:35 METAR KJYO 270935Z AUTO 28003KT 10SM -RA OVC006 21/21 A2990 RMK AO2 LTG DSNT E =
2018-05-27 05:15 METAR KJYO 270915Z AUTO 00000KT 10SM OVC006 21/21 A2990 RMK AO2 =
2018-05-27 04:55 METAR KJYO 270855Z AUTO 27004KT 10SM OVC006 21/21 A2990 RMK AO2 =
2018-05-27 04:35 METAR KJYO 270835Z AUTO 27003KT 10SM OVC006 21/21 A2990 RMK AO2 =
2018-05-27 04:15 METAR KJYO 270815Z AUTO 26004KT 10SM OVC006 21/21 A2990 RMK AO2 =
2018-05-27 03:55 METAR KJYO 270755Z AUTO 26003KT 10SM OVC006 21/21 A2989 RMK AO2 =
2018-05-27 03:35 METAR KJYO 270735Z AUTO 00000KT 10SM OVC006 21/21 A2989 RMK AO2 =
2018-05-27 03:15 METAR KJYO 270715Z AUTO 18004KT 10SM OVC006 21/21 A2988 RMK AO2 =
2018-05-27 02:55 METAR KJYO 270655Z AUTO 00000KT 10SM OVC006 21/21 A2988 RMK AO2 =
2018-05-27 02:35 METAR KJYO 270635Z AUTO 00000KT 10SM BKN006 BKN120 21/21 A2989 RMK AO2 =
2018-05-27 02:15 METAR KJYO 270615Z AUTO 00000KT 10SM SCT120 22/22 A2988 RMK AO2 =
2018-05-27 01:55 METAR KJYO 270555Z AUTO 18004KT 10SM CLR 22/22 A2988 RMK AO2 LTG DSNT E =
2018-05-27 01:35 METAR KJYO 270535Z AUTO 17004KT 10SM CLR 22/22 A2988 RMK AO2 LTG DSNT NW =
2018-05-27 01:15 METAR KJYO 270515Z AUTO 18005KT 10SM CLR 22/22 A2989 RMK AO2 =
2018-05-27 00:55 METAR KJYO 270455Z AUTO 19003KT 10SM CLR 22/22 A2989 RMK AO2 LTG DSNT SE AND SW
                 =
2018-05-27 00:35 METAR KJYO 270435Z AUTO 18004KT 10SM CLR 22/22 A2989 RMK AO2 LTG DSNT SW =
2018-05-27 00:15 METAR KJYO 270415Z AUTO 18003KT 10SM CLR 23/22 A2990 RMK AO2 =
2018-05-26 23:55 METAR KJYO 270355Z AUTO 17003KT 10SM CLR 23/22 A2990 RMK AO2 =
2018-05-26 23:35 METAR KJYO 270335Z AUTO 17003KT 10SM CLR 23/22 A2990 RMK AO2 =
2018-05-26 23:15 METAR KJYO 270315Z AUTO 00000KT 10SM CLR 23/21 A2990 RMK AO2 =
2018-05-26 22:55 METAR KJYO 270255Z AUTO 18003KT 10SM CLR 23/21 A2990 RMK AO2 =
2018-05-26 22:35 METAR KJYO 270235Z AUTO 18005KT 10SM CLR 24/21 A2990 RMK AO2 =
2018-05-26 22:15 METAR KJYO 270215Z AUTO 18005KT 10SM CLR 24/21 A2990 RMK AO2 =
2018-05-26 21:55 METAR KJYO 270155Z AUTO 18004KT 10SM CLR 24/21 A2989 RMK AO2 =
2018-05-26 21:35 METAR KJYO 270135Z AUTO 23005KT 10SM CLR 25/21 A2989 RMK AO2 =
2018-05-26 21:15 METAR KJYO 270115Z AUTO 22005KT 10SM CLR 25/21 A2988 RMK AO2 =
2018-05-26 20:55 METAR KJYO 270055Z AUTO 24004KT 10SM CLR 25/22 A2988 RMK AO2 =
2018-05-26 20:35 METAR KJYO 270035Z AUTO 22004KT 10SM CLR 25/22 A2987 RMK AO2 =
2018-05-26 20:15 METAR KJYO 270015Z AUTO 20005KT 10SM CLR 26/22 A2986 RMK AO2 =
2018-05-26 19:55 METAR KJYO 262355Z AUTO 19006KT 10SM SCT018 26/23 A2986 RMK AO2 =
2018-05-26 19:35 METAR KJYO 262335Z AUTO 00000KT 10SM CLR 26/23 A2986 RMK AO2 =
2018-05-26 19:15 METAR KJYO 262315Z AUTO 00000KT 10SM SCT048 SCT065 SCT095 26/23 A2985 RMK AO2
                 LTG DSNT SE AND NW =
2018-05-26 18:55 METAR KJYO 262255Z AUTO 22003KT 10SM SCT050 BKN095 OVC110 26/23 A2985 RMK AO2
                 LTG DSNT SE =
2018-05-26 18:35 METAR KJYO 262235Z AUTO 22004KT 10SM SCT060 SCT075 BKN090 26/23 A2986 RMK AO2
                 LTG DSNT SW =
2018-05-26 18:15 METAR KJYO 262215Z AUTO 24004KT 10SM SCT036 SCT047 OVC090 26/23 A2985 RMK AO2
                 LTG DSNT S AND SW =
2018-05-26 17:55 METAR KJYO 262155Z AUTO 24003KT 10SM -RA SCT036 BKN049 OVC090 26/23 A2986 RMK
                 AO2 LTG DSNT SE AND SW =
2018-05-26 17:35 METAR KJYO 262135Z AUTO 00000KT 10SM -RA SCT037 BKN080 OVC095 27/23 A2985 RMK
                 AO2 LTG DSNT E THRU SW =
2018-05-26 17:15 METAR KJYO 262115Z AUTO 23003KT 10SM SCT070 BKN090 BKN110 28/23 A2984 RMK AO2
                 LTG DSNT NE SE AND SW =
2018-05-26 16:55 METAR KJYO 262055Z AUTO 23004KT 10SM SCT100 28/22 A2985 RMK AO2 LTG DSNT E AND
                 SW =
2018-05-26 16:35 METAR KJYO 262035Z AUTO 24004KT 10SM CLR 29/23 A2985 RMK AO2 LTG DSNT ALQS =
2018-05-26 16:15 METAR KJYO 262015Z AUTO 23005KT 10SM CLR 30/22 A2984 RMK AO2 LTG DSNT NE AND E =
2018-05-26 15:55 METAR KJYO 261955Z AUTO 20007KT 10SM CLR 31/22 A2984 RMK AO2 LTG DSNT E =
2018-05-26 15:35 METAR KJYO 261935Z AUTO 22006KT 10SM SCT090 31/22 A2983 RMK AO2 LTG DSNT E AND
                 NW =
2018-05-26 15:15 METAR KJYO 261915Z AUTO 20008KT 10SM SCT050 SCT100 32/22 A2984 RMK AO2 LTG DSNT
                 E AND SE =
2018-05-26 14:55 METAR KJYO 261855Z AUTO 00000KT 10SM BKN050 BKN070 BKN090 32/21 A2984 RMK AO2
                 LTG DSNT SW =
2018-05-26 14:35 METAR KJYO 261835Z AUTO 17003KT 10SM SCT050 33/21 A2984 RMK AO2 LTG DSNT SW AND
                 NW =
2018-05-26 14:15 METAR KJYO 261815Z AUTO 26005KT 10SM SCT050 32/21 A2985 RMK AO2 LTG DSNT SW AND
                 W =
2018-05-26 13:55 METAR KJYO 261755Z AUTO 25005KT 10SM SCT050 SCT095 32/21 A2986 RMK AO2 LTG DSNT
                 SW =
2018-05-26 13:35 METAR KJYO 261735Z AUTO 31003KT 10SM SCT048 SCT095 32/20 A2987 RMK AO2 =
2018-05-26 13:15 METAR KJYO 261715Z AUTO 26006KT 10SM CLR 32/21 A2988 RMK AO2 =
2018-05-26 12:55 METAR KJYO 261655Z AUTO 27004KT 10SM CLR 31/22 A2988 RMK AO2 =
2018-05-26 12:35 METAR KJYO 261635Z AUTO 00000KT 10SM CLR 31/21 A2988 RMK AO2 =
2018-05-26 12:15 METAR KJYO 261615Z AUTO 28005KT 10SM SCT100 31/21 A2989 RMK AO2 =
2018-05-26 11:55 METAR KJYO 261555Z AUTO 00000KT 10SM BKN100 31/21 A2989 RMK AO2 =

Support USWX by starting your Amazon purchase here.